sensor_id;sensor_type;location;lat;lon;timestamp;P1;durP1;ratioP1;P2;durP2;ratioP2
13085;SDS011;6609;49.882;8.664;2023-04-25T00:00:55;5.57;;;3.53;;
13085;SDS011;6609;49.882;8.664;2023-04-25T00:03:22;4.03;;;3.60;;
13085;SDS011;6609;49.882;8.664;2023-04-25T00:05:50;4.43;;;3.50;;
13085;SDS011;6609;49.882;8.664;2023-04-25T00:08:16;5.20;;;3.47;;
13085;SDS011;6609;49.882;8.664;2023-04-25T00:10:45;4.33;;;3.77;;
13085;SDS011;6609;49.882;8.664;2023-04-25T00:13:11;4.77;;;3.70;;
13085;SDS011;6609;49.882;8.664;2023-04-25T00:15:38;4.20;;;3.53;;
13085;SDS011;6609;49.882;8.664;2023-04-25T00:18:06;6.23;;;3.90;;
13085;SDS011;6609;49.882;8.664;2023-04-25T00:20:34;4.10;;;3.57;;
13085;SDS011;6609;49.882;8.664;2023-04-25T00:23:01;5.67;;;4.03;;
13085;SDS011;6609;49.882;8.664;2023-04-25T00:25:28;5.33;;;4.10;;
13085;SDS011;6609;49.882;8.664;2023-04-25T00:27:56;5.17;;;4.27;;
13085;SDS011;6609;49.882;8.664;2023-04-25T00:30:23;6.83;;;4.67;;
13085;SDS011;6609;49.882;8.664;2023-04-25T00:32:49;5.33;;;4.03;;
13085;SDS011;6609;49.882;8.664;2023-04-25T00:35:16;4.30;;;3.80;;
13085;SDS011;6609;49.882;8.664;2023-04-25T00:37:43;6.10;;;4.10;;
13085;SDS011;6609;49.882;8.664;2023-04-25T00:40:10;5.37;;;4.43;;
13085;SDS011;6609;49.882;8.664;2023-04-25T00:42:37;5.27;;;3.93;;
13085;SDS011;6609;49.882;8.664;2023-04-25T00:45:06;5.67;;;4.70;;
13085;SDS011;6609;49.882;8.664;2023-04-25T00:47:35;4.83;;;4.10;;
13085;SDS011;6609;49.882;8.664;2023-04-25T00:50:02;5.00;;;4.10;;
13085;SDS011;6609;49.882;8.664;2023-04-25T00:52:29;4.33;;;3.53;;
13085;SDS011;6609;49.882;8.664;2023-04-25T00:54:56;7.47;;;4.63;;
13085;SDS011;6609;49.882;8.664;2023-04-25T00:57:23;5.97;;;4.20;;
13085;SDS011;6609;49.882;8.664;2023-04-25T00:59:51;6.83;;;5.00;;
13085;SDS011;6609;49.882;8.664;2023-04-25T01:02:20;6.40;;;4.90;;
13085;SDS011;6609;49.882;8.664;2023-04-25T01:58:22;5.57;;;4.40;;
13085;SDS011;6609;49.882;8.664;2023-04-25T02:00:48;6.00;;;4.90;;
13085;SDS011;6609;49.882;8.664;2023-04-25T02:03:15;9.70;;;4.83;;
13085;SDS011;6609;49.882;8.664;2023-04-25T02:05:42;5.80;;;4.93;;
13085;SDS011;6609;49.882;8.664;2023-04-25T02:08:08;8.87;;;5.00;;
13085;SDS011;6609;49.882;8.664;2023-04-25T02:10:35;8.50;;;4.57;;
13085;SDS011;6609;49.882;8.664;2023-04-25T02:13:02;6.40;;;4.83;;
13085;SDS011;6609;49.882;8.664;2023-04-25T02:15:31;7.20;;;5.07;;
13085;SDS011;6609;49.882;8.664;2023-04-25T02:17:58;6.83;;;5.10;;
13085;SDS011;6609;49.882;8.664;2023-04-25T02:20:26;6.73;;;4.63;;
13085;SDS011;6609;49.882;8.664;2023-04-25T02:22:53;8.40;;;4.80;;
13085;SDS011;6609;49.882;8.664;2023-04-25T02:25:20;6.20;;;4.80;;
13085;SDS011;6609;49.882;8.664;2023-04-25T02:27:47;6.43;;;4.83;;
13085;SDS011;6609;49.882;8.664;2023-04-25T02:30:15;6.60;;;4.67;;
13085;SDS011;6609;49.882;8.664;2023-04-25T02:32:43;7.67;;;5.03;;
13085;SDS011;6609;49.882;8.664;2023-04-25T02:35:10;6.03;;;4.77;;
13085;SDS011;6609;49.882;8.664;2023-04-25T02:37:37;7.20;;;5.03;;
13085;SDS011;6609;49.882;8.664;2023-04-25T02:40:05;11.80;;;5.53;;
13085;SDS011;6609;49.882;8.664;2023-04-25T02:42:33;6.80;;;5.20;;
13085;SDS011;6609;49.882;8.664;2023-04-25T02:44:59;6.43;;;5.33;;
13085;SDS011;6609;49.882;8.664;2023-04-25T02:47:26;7.73;;;5.70;;
13085;SDS011;6609;49.882;8.664;2023-04-25T02:49:55;9.40;;;6.33;;
13085;SDS011;6609;49.882;8.664;2023-04-25T02:52:21;6.97;;;5.60;;
13085;SDS011;6609;49.882;8.664;2023-04-25T02:54:48;7.33;;;5.87;;
13085;SDS011;6609;49.882;8.664;2023-04-25T02:57:15;7.73;;;5.90;;
13085;SDS011;6609;49.882;8.664;2023-04-25T02:59:41;7.10;;;5.60;;
13085;SDS011;6609;49.882;8.664;2023-04-25T03:02:08;7.47;;;5.83;;
13085;SDS011;6609;49.882;8.664;2023-04-25T03:04:35;8.43;;;5.30;;
13085;SDS011;6609;49.882;8.664;2023-04-25T03:07:03;8.10;;;5.93;;
13085;SDS011;6609;49.882;8.664;2023-04-25T03:09:30;7.77;;;5.40;;
13085;SDS011;6609;49.882;8.664;2023-04-25T03:11:57;7.00;;;5.47;;
13085;SDS011;6609;49.882;8.664;2023-04-25T03:14:23;8.73;;;5.50;;
13085;SDS011;6609;49.882;8.664;2023-04-25T03:16:50;7.83;;;5.93;;
13085;SDS011;6609;49.882;8.664;2023-04-25T03:19:16;8.90;;;6.10;;
13085;SDS011;6609;49.882;8.664;2023-04-25T03:21:43;7.80;;;5.87;;
13085;SDS011;6609;49.882;8.664;2023-04-25T03:24:12;8.00;;;6.07;;
13085;SDS011;6609;49.882;8.664;2023-04-25T03:26:38;8.13;;;6.33;;
13085;SDS011;6609;49.882;8.664;2023-04-25T03:29:05;8.30;;;6.50;;
13085;SDS011;6609;49.882;8.664;2023-04-25T03:31:32;8.03;;;6.37;;
13085;SDS011;6609;49.882;8.664;2023-04-25T03:33:58;8.30;;;5.90;;
13085;SDS011;6609;49.882;8.664;2023-04-25T03:36:25;7.40;;;6.30;;
13085;SDS011;6609;49.882;8.664;2023-04-25T03:38:52;10.70;;;7.17;;
13085;SDS011;6609;49.882;8.664;2023-04-25T03:41:20;9.87;;;6.53;;
13085;SDS011;6609;49.882;8.664;2023-04-25T03:43:47;9.57;;;6.83;;
13085;SDS011;6609;49.882;8.664;2023-04-25T03:46:13;10.00;;;6.80;;
13085;SDS011;6609;49.882;8.664;2023-04-25T03:48:41;10.87;;;6.90;;
13085;SDS011;6609;49.882;8.664;2023-04-25T03:51:08;9.17;;;7.47;;
13085;SDS011;6609;49.882;8.664;2023-04-25T03:53:34;10.20;;;7.77;;
13085;SDS011;6609;49.882;8.664;2023-04-25T03:56:01;9.90;;;7.67;;
13085;SDS011;6609;49.882;8.664;2023-04-25T03:58:29;10.17;;;7.53;;
13085;SDS011;6609;49.882;8.664;2023-04-25T04:00:56;11.27;;;8.13;;
13085;SDS011;6609;49.882;8.664;2023-04-25T04:03:22;8.17;;;6.70;;
13085;SDS011;6609;49.882;8.664;2023-04-25T04:05:49;9.80;;;7.70;;
13085;SDS011;6609;49.882;8.664;2023-04-25T04:08:16;9.03;;;7.13;;
13085;SDS011;6609;49.882;8.664;2023-04-25T04:10:42;12.20;;;7.80;;
13085;SDS011;6609;49.882;8.664;2023-04-25T04:13:09;9.50;;;7.10;;
13085;SDS011;6609;49.882;8.664;2023-04-25T04:15:37;9.03;;;6.50;;
13085;SDS011;6609;49.882;8.664;2023-04-25T04:18:04;9.07;;;7.00;;
13085;SDS011;6609;49.882;8.664;2023-04-25T04:20:31;9.23;;;7.10;;
13085;SDS011;6609;49.882;8.664;2023-04-25T04:22:57;12.27;;;7.83;;
13085;SDS011;6609;49.882;8.664;2023-04-25T04:25:24;10.07;;;6.83;;
13085;SDS011;6609;49.882;8.664;2023-04-25T04:27:51;10.97;;;7.33;;
13085;SDS011;6609;49.882;8.664;2023-04-25T04:30:19;9.43;;;7.03;;
13085;SDS011;6609;49.882;8.664;2023-04-25T04:32:50;9.83;;;7.40;;
13085;SDS011;6609;49.882;8.664;2023-04-25T04:35:17;12.33;;;7.40;;
13085;SDS011;6609;49.882;8.664;2023-04-25T04:37:43;11.00;;;7.63;;
13085;SDS011;6609;49.882;8.664;2023-04-25T04:40:11;13.93;;;7.77;;
13085;SDS011;6609;49.882;8.664;2023-04-25T04:42:40;9.90;;;7.47;;
13085;SDS011;6609;49.882;8.664;2023-04-25T04:45:07;10.97;;;7.90;;
13085;SDS011;6609;49.882;8.664;2023-04-25T04:47:35;12.07;;;7.97;;
13085;SDS011;6609;49.882;8.664;2023-04-25T04:50:03;10.10;;;7.80;;
13085;SDS011;6609;49.882;8.664;2023-04-25T04:52:33;13.43;;;7.37;;
13085;SDS011;6609;49.882;8.664;2023-04-25T04:55:00;12.00;;;9.00;;
13085;SDS011;6609;49.882;8.664;2023-04-25T04:57:27;13.20;;;6.90;;
13085;SDS011;6609;49.882;8.664;2023-04-25T04:59:53;10.50;;;7.40;;
13085;SDS011;6609;49.882;8.664;2023-04-25T05:02:20;13.30;;;7.57;;
13085;SDS011;6609;49.882;8.664;2023-04-25T05:04:47;9.10;;;6.80;;
13085;SDS011;6609;49.882;8.664;2023-04-25T05:07:15;10.30;;;6.27;;
13085;SDS011;6609;49.882;8.664;2023-04-25T05:09:41;8.17;;;5.73;;
13085;SDS011;6609;49.882;8.664;2023-04-25T05:12:08;9.83;;;6.60;;
13085;SDS011;6609;49.882;8.664;2023-04-25T05:14:35;11.50;;;6.13;;
13085;SDS011;6609;49.882;8.664;2023-04-25T05:17:02;11.20;;;5.77;;
13085;SDS011;6609;49.882;8.664;2023-04-25T05:19:31;10.30;;;5.93;;
13085;SDS011;6609;49.882;8.664;2023-04-25T05:21:58;11.90;;;5.10;;
13085;SDS011;6609;49.882;8.664;2023-04-25T05:24:26;12.43;;;6.50;;
13085;SDS011;6609;49.882;8.664;2023-04-25T05:26:53;16.33;;;7.07;;
13085;SDS011;6609;49.882;8.664;2023-04-25T05:29:20;11.47;;;6.33;;
13085;SDS011;6609;49.882;8.664;2023-04-25T05:31:46;12.63;;;5.90;;
13085;SDS011;6609;49.882;8.664;2023-04-25T05:34:13;10.63;;;7.53;;
13085;SDS011;6609;49.882;8.664;2023-04-25T05:36:41;16.00;;;6.33;;
13085;SDS011;6609;49.882;8.664;2023-04-25T05:39:08;14.23;;;7.47;;
13085;SDS011;6609;49.882;8.664;2023-04-25T05:41:36;10.53;;;6.10;;
13085;SDS011;6609;49.882;8.664;2023-04-25T05:44:03;11.53;;;5.83;;
13085;SDS011;6609;49.882;8.664;2023-04-25T05:46:30;14.80;;;6.27;;
13085;SDS011;6609;49.882;8.664;2023-04-25T05:48:57;12.00;;;6.13;;
13085;SDS011;6609;49.882;8.664;2023-04-25T05:51:23;12.93;;;6.57;;
13085;SDS011;6609;49.882;8.664;2023-04-25T05:53:50;12.70;;;6.13;;
13085;SDS011;6609;49.882;8.664;2023-04-25T05:56:18;12.80;;;6.47;;
13085;SDS011;6609;49.882;8.664;2023-04-25T05:58:46;15.03;;;6.43;;
13085;SDS011;6609;49.882;8.664;2023-04-25T06:01:13;12.50;;;7.47;;
13085;SDS011;6609;49.882;8.664;2023-04-25T06:03:39;12.63;;;8.30;;
13085;SDS011;6609;49.882;8.664;2023-04-25T06:06:07;13.40;;;8.63;;
13085;SDS011;6609;49.882;8.664;2023-04-25T06:08:34;15.10;;;7.43;;
13085;SDS011;6609;49.882;8.664;2023-04-25T06:11:02;11.90;;;8.00;;
13085;SDS011;6609;49.882;8.664;2023-04-25T06:13:29;11.33;;;7.53;;
13085;SDS011;6609;49.882;8.664;2023-04-25T06:15:57;14.03;;;7.63;;
13085;SDS011;6609;49.882;8.664;2023-04-25T06:18:24;14.37;;;7.77;;
13085;SDS011;6609;49.882;8.664;2023-04-25T06:20:51;16.23;;;7.87;;
13085;SDS011;6609;49.882;8.664;2023-04-25T06:23:17;13.30;;;6.97;;
13085;SDS011;6609;49.882;8.664;2023-04-25T06:25:44;12.40;;;7.07;;
13085;SDS011;6609;49.882;8.664;2023-04-25T06:28:11;16.67;;;7.07;;
13085;SDS011;6609;49.882;8.664;2023-04-25T06:30:37;13.20;;;7.63;;
13085;SDS011;6609;49.882;8.664;2023-04-25T06:33:05;12.87;;;7.67;;
13085;SDS011;6609;49.882;8.664;2023-04-25T06:35:35;12.77;;;7.60;;
13085;SDS011;6609;49.882;8.664;2023-04-25T06:38:02;12.93;;;6.83;;
13085;SDS011;6609;49.882;8.664;2023-04-25T06:40:28;11.40;;;7.17;;
13085;SDS011;6609;49.882;8.664;2023-04-25T06:42:55;13.70;;;6.20;;
13085;SDS011;6609;49.882;8.664;2023-04-25T06:45:22;11.93;;;6.33;;
13085;SDS011;6609;49.882;8.664;2023-04-25T06:47:49;10.97;;;6.53;;
13085;SDS011;6609;49.882;8.664;2023-04-25T06:50:17;12.70;;;6.33;;
13085;SDS011;6609;49.882;8.664;2023-04-25T06:52:44;13.70;;;5.30;;
13085;SDS011;6609;49.882;8.664;2023-04-25T06:55:11;8.53;;;5.27;;
13085;SDS011;6609;49.882;8.664;2023-04-25T06:57:38;9.33;;;5.27;;
13085;SDS011;6609;49.882;8.664;2023-04-25T07:00:05;9.20;;;5.10;;
13085;SDS011;6609;49.882;8.664;2023-04-25T07:02:34;7.40;;;4.30;;
13085;SDS011;6609;49.882;8.664;2023-04-25T07:05:01;14.20;;;5.33;;
13085;SDS011;6609;49.882;8.664;2023-04-25T07:07:30;9.13;;;4.70;;
13085;SDS011;6609;49.882;8.664;2023-04-25T07:09:57;11.60;;;4.63;;
13085;SDS011;6609;49.882;8.664;2023-04-25T07:12:24;6.87;;;5.10;;
13085;SDS011;6609;49.882;8.664;2023-04-25T07:14:50;9.90;;;4.13;;
13085;SDS011;6609;49.882;8.664;2023-04-25T07:17:17;9.00;;;4.23;;
13085;SDS011;6609;49.882;8.664;2023-04-25T07:19:44;6.37;;;4.00;;
13085;SDS011;6609;49.882;8.664;2023-04-25T07:22:11;9.27;;;5.13;;
13085;SDS011;6609;49.882;8.664;2023-04-25T07:24:40;9.57;;;5.10;;
13085;SDS011;6609;49.882;8.664;2023-04-25T07:27:06;11.80;;;5.23;;
13085;SDS011;6609;49.882;8.664;2023-04-25T07:29:33;8.50;;;4.50;;
13085;SDS011;6609;49.882;8.664;2023-04-25T07:32:02;14.87;;;4.17;;
13085;SDS011;6609;49.882;8.664;2023-04-25T07:34:29;11.43;;;5.27;;
13085;SDS011;6609;49.882;8.664;2023-04-25T07:36:57;6.60;;;4.23;;
13085;SDS011;6609;49.882;8.664;2023-04-25T07:39:24;7.53;;;3.60;;
13085;SDS011;6609;49.882;8.664;2023-04-25T07:41:52;13.57;;;3.57;;
13085;SDS011;6609;49.882;8.664;2023-04-25T07:44:19;6.30;;;3.20;;
13085;SDS011;6609;49.882;8.664;2023-04-25T07:46:46;5.23;;;2.73;;
13085;SDS011;6609;49.882;8.664;2023-04-25T07:49:13;7.83;;;2.93;;
13085;SDS011;6609;49.882;8.664;2023-04-25T07:51:40;7.20;;;3.10;;
13085;SDS011;6609;49.882;8.664;2023-04-25T07:54:08;7.93;;;3.13;;
13085;SDS011;6609;49.882;8.664;2023-04-25T07:56:35;5.73;;;3.10;;
13085;SDS011;6609;49.882;8.664;2023-04-25T07:59:03;6.10;;;3.73;;
13085;SDS011;6609;49.882;8.664;2023-04-25T08:01:30;6.63;;;3.00;;
13085;SDS011;6609;49.882;8.664;2023-04-25T08:03:57;6.20;;;3.17;;
13085;SDS011;6609;49.882;8.664;2023-04-25T08:06:24;7.30;;;2.97;;
13085;SDS011;6609;49.882;8.664;2023-04-25T08:08:52;6.03;;;2.87;;
13085;SDS011;6609;49.882;8.664;2023-04-25T08:11:19;5.70;;;3.00;;
13085;SDS011;6609;49.882;8.664;2023-04-25T08:13:46;5.27;;;2.90;;
13085;SDS011;6609;49.882;8.664;2023-04-25T08:16:14;5.57;;;2.60;;
13085;SDS011;6609;49.882;8.664;2023-04-25T08:18:41;5.83;;;3.03;;
13085;SDS011;6609;49.882;8.664;2023-04-25T08:21:08;4.30;;;2.93;;
13085;SDS011;6609;49.882;8.664;2023-04-25T08:23:36;7.73;;;2.57;;
13085;SDS011;6609;49.882;8.664;2023-04-25T08:26:03;6.63;;;3.37;;
13085;SDS011;6609;49.882;8.664;2023-04-25T08:28:30;6.90;;;3.00;;
13085;SDS011;6609;49.882;8.664;2023-04-25T08:30:57;5.57;;;2.30;;
13085;SDS011;6609;49.882;8.664;2023-04-25T08:33:25;3.77;;;2.30;;
13085;SDS011;6609;49.882;8.664;2023-04-25T08:35:52;8.67;;;2.60;;
13085;SDS011;6609;49.882;8.664;2023-04-25T08:38:19;6.93;;;3.30;;
13085;SDS011;6609;49.882;8.664;2023-04-25T08:40:48;11.20;;;3.27;;
13085;SDS011;6609;49.882;8.664;2023-04-25T08:43:17;4.83;;;2.90;;
13085;SDS011;6609;49.882;8.664;2023-04-25T08:45:44;7.33;;;2.90;;
13085;SDS011;6609;49.882;8.664;2023-04-25T08:48:12;5.83;;;3.27;;
13085;SDS011;6609;49.882;8.664;2023-04-25T08:50:43;5.87;;;2.77;;
13085;SDS011;6609;49.882;8.664;2023-04-25T08:53:13;6.60;;;2.40;;
13085;SDS011;6609;49.882;8.664;2023-04-25T08:55:44;6.33;;;2.43;;
13085;SDS011;6609;49.882;8.664;2023-04-25T08:58:12;5.73;;;2.20;;
13085;SDS011;6609;49.882;8.664;2023-04-25T09:00:39;4.70;;;2.40;;
13085;SDS011;6609;49.882;8.664;2023-04-25T09:03:06;7.13;;;2.73;;
13085;SDS011;6609;49.882;8.664;2023-04-25T09:05:33;9.20;;;3.00;;
13085;SDS011;6609;49.882;8.664;2023-04-25T09:08:01;5.67;;;2.47;;
13085;SDS011;6609;49.882;8.664;2023-04-25T09:10:28;3.47;;;2.20;;
13085;SDS011;6609;49.882;8.664;2023-04-25T09:13:01;5.67;;;2.53;;
13085;SDS011;6609;49.882;8.664;2023-04-25T09:15:29;5.80;;;2.00;;
13085;SDS011;6609;49.882;8.664;2023-04-25T09:17:57;3.60;;;2.00;;
13085;SDS011;6609;49.882;8.664;2023-04-25T09:20:24;4.53;;;2.57;;
13085;SDS011;6609;49.882;8.664;2023-04-25T09:23:02;7.27;;;2.70;;
13085;SDS011;6609;49.882;8.664;2023-04-25T09:25:33;4.87;;;2.70;;
13085;SDS011;6609;49.882;8.664;2023-04-25T09:28:04;7.00;;;2.57;;
13085;SDS011;6609;49.882;8.664;2023-04-25T09:30:32;4.20;;;2.20;;
13085;SDS011;6609;49.882;8.664;2023-04-25T09:33:03;4.17;;;2.00;;
13085;SDS011;6609;49.882;8.664;2023-04-25T09:35:35;5.03;;;2.27;;
13085;SDS011;6609;49.882;8.664;2023-04-25T09:38:08;4.50;;;2.37;;
13085;SDS011;6609;49.882;8.664;2023-04-25T09:40:38;4.43;;;2.63;;
13085;SDS011;6609;49.882;8.664;2023-04-25T09:43:08;5.67;;;2.80;;
13085;SDS011;6609;49.882;8.664;2023-04-25T09:45:40;5.13;;;2.40;;
13085;SDS011;6609;49.882;8.664;2023-04-25T09:48:10;5.63;;;2.90;;
13085;SDS011;6609;49.882;8.664;2023-04-25T09:50:37;6.90;;;3.03;;
13085;SDS011;6609;49.882;8.664;2023-04-25T09:53:05;5.67;;;3.03;;
13085;SDS011;6609;49.882;8.664;2023-04-25T09:55:34;4.07;;;2.40;;
13085;SDS011;6609;49.882;8.664;2023-04-25T09:58:04;6.37;;;2.40;;
13085;SDS011;6609;49.882;8.664;2023-04-25T10:00:32;4.97;;;2.80;;
13085;SDS011;6609;49.882;8.664;2023-04-25T10:03:00;6.37;;;3.00;;
13085;SDS011;6609;49.882;8.664;2023-04-25T10:05:29;4.27;;;2.60;;
13085;SDS011;6609;49.882;8.664;2023-04-25T10:07:58;8.03;;;2.73;;
13085;SDS011;6609;49.882;8.664;2023-04-25T10:10:28;5.97;;;2.87;;
13085;SDS011;6609;49.882;8.664;2023-04-25T10:13:03;6.57;;;3.23;;
13085;SDS011;6609;49.882;8.664;2023-04-25T10:15:31;3.50;;;2.47;;
13085;SDS011;6609;49.882;8.664;2023-04-25T10:18:01;4.30;;;2.47;;
13085;SDS011;6609;49.882;8.664;2023-04-25T10:20:28;4.80;;;2.73;;
13085;SDS011;6609;49.882;8.664;2023-04-25T10:22:55;4.53;;;3.07;;
13085;SDS011;6609;49.882;8.664;2023-04-25T10:25:29;5.47;;;2.93;;
13085;SDS011;6609;49.882;8.664;2023-04-25T10:27:57;6.30;;;3.53;;
13085;SDS011;6609;49.882;8.664;2023-04-25T10:30:27;4.47;;;3.20;;
13085;SDS011;6609;49.882;8.664;2023-04-25T10:32:54;3.90;;;2.97;;
13085;SDS011;6609;49.882;8.664;2023-04-25T10:35:23;6.97;;;3.30;;
13085;SDS011;6609;49.882;8.664;2023-04-25T10:38:03;8.67;;;4.07;;
13085;SDS011;6609;49.882;8.664;2023-04-25T10:40:31;4.17;;;3.13;;
13085;SDS011;6609;49.882;8.664;2023-04-25T10:46:01;6.43;;;3.87;;
13085;SDS011;6609;49.882;8.664;2023-04-25T10:48:28;5.73;;;3.37;;
13085;SDS011;6609;49.882;8.664;2023-04-25T10:51:08;5.53;;;3.33;;
13085;SDS011;6609;49.882;8.664;2023-04-25T10:53:35;11.47;;;4.07;;
13085;SDS011;6609;49.882;8.664;2023-04-25T10:56:09;4.70;;;3.10;;
13085;SDS011;6609;49.882;8.664;2023-04-25T10:58:36;5.87;;;3.30;;
13085;SDS011;6609;49.882;8.664;2023-04-25T11:01:09;7.00;;;3.43;;
13085;SDS011;6609;49.882;8.664;2023-04-25T11:03:38;7.93;;;4.07;;
13085;SDS011;6609;49.882;8.664;2023-04-25T11:06:06;5.73;;;3.90;;
13085;SDS011;6609;49.882;8.664;2023-04-25T11:08:44;6.43;;;3.63;;
13085;SDS011;6609;49.882;8.664;2023-04-25T11:11:14;4.50;;;3.50;;
13085;SDS011;6609;49.882;8.664;2023-04-25T11:13:42;6.00;;;3.30;;
13085;SDS011;6609;49.882;8.664;2023-04-25T11:16:10;5.47;;;3.50;;
13085;SDS011;6609;49.882;8.664;2023-04-25T11:18:37;5.70;;;3.17;;
13085;SDS011;6609;49.882;8.664;2023-04-25T11:21:03;5.20;;;3.30;;
13085;SDS011;6609;49.882;8.664;2023-04-25T11:23:31;4.77;;;3.40;;
13085;SDS011;6609;49.882;8.664;2023-04-25T11:25:58;5.70;;;2.60;;
13085;SDS011;6609;49.882;8.664;2023-04-25T11:28:26;5.40;;;3.10;;
13085;SDS011;6609;49.882;8.664;2023-04-25T11:30:53;4.37;;;3.10;;
13085;SDS011;6609;49.882;8.664;2023-04-25T11:33:24;6.47;;;3.30;;
13085;SDS011;6609;49.882;8.664;2023-04-25T11:35:52;4.67;;;3.20;;
13085;SDS011;6609;49.882;8.664;2023-04-25T11:38:21;6.30;;;2.97;;
13085;SDS011;6609;49.882;8.664;2023-04-25T11:40:49;4.77;;;3.63;;
13085;SDS011;6609;49.882;8.664;2023-04-25T11:43:17;5.53;;;3.60;;
13085;SDS011;6609;49.882;8.664;2023-04-25T11:45:46;6.07;;;3.47;;
13085;SDS011;6609;49.882;8.664;2023-04-25T11:48:13;6.43;;;3.53;;
13085;SDS011;6609;49.882;8.664;2023-04-25T11:50:42;8.83;;;3.80;;
13085;SDS011;6609;49.882;8.664;2023-04-25T11:53:08;5.80;;;3.67;;
13085;SDS011;6609;49.882;8.664;2023-04-25T11:55:36;5.60;;;3.50;;
13085;SDS011;6609;49.882;8.664;2023-04-25T11:58:03;5.43;;;3.73;;
13085;SDS011;6609;49.882;8.664;2023-04-25T12:00:30;6.07;;;3.93;;
13085;SDS011;6609;49.882;8.664;2023-04-25T12:02:57;5.87;;;3.80;;
13085;SDS011;6609;49.882;8.664;2023-04-25T12:05:26;4.17;;;2.83;;
13085;SDS011;6609;49.882;8.664;2023-04-25T12:07:55;9.43;;;4.03;;
13085;SDS011;6609;49.882;8.664;2023-04-25T12:10:23;6.30;;;3.73;;
13085;SDS011;6609;49.882;8.664;2023-04-25T12:12:51;7.00;;;3.70;;
13085;SDS011;6609;49.882;8.664;2023-04-25T12:15:22;5.53;;;3.30;;
13085;SDS011;6609;49.882;8.664;2023-04-25T12:17:51;8.13;;;4.33;;
13085;SDS011;6609;49.882;8.664;2023-04-25T12:20:20;7.33;;;3.40;;
13085;SDS011;6609;49.882;8.664;2023-04-25T12:22:48;4.43;;;3.33;;
13085;SDS011;6609;49.882;8.664;2023-04-25T12:28:09;6.37;;;3.30;;
13085;SDS011;6609;49.882;8.664;2023-04-25T12:30:52;7.40;;;3.90;;
13085;SDS011;6609;49.882;8.664;2023-04-25T12:33:20;10.73;;;3.07;;
13085;SDS011;6609;49.882;8.664;2023-04-25T12:35:47;7.77;;;3.30;;
13085;SDS011;6609;49.882;8.664;2023-04-25T12:38:20;8.73;;;3.50;;
13085;SDS011;6609;49.882;8.664;2023-04-25T12:40:49;13.23;;;3.40;;
13085;SDS011;6609;49.882;8.664;2023-04-25T12:43:15;12.97;;;2.97;;
13085;SDS011;6609;49.882;8.664;2023-04-25T12:45:43;7.83;;;3.20;;
13085;SDS011;6609;49.882;8.664;2023-04-25T12:48:10;8.40;;;3.83;;
13085;SDS011;6609;49.882;8.664;2023-04-25T12:50:36;7.33;;;3.00;;
13085;SDS011;6609;49.882;8.664;2023-04-25T12:53:03;8.93;;;3.17;;
13085;SDS011;6609;49.882;8.664;2023-04-25T12:55:30;7.90;;;3.87;;
13085;SDS011;6609;49.882;8.664;2023-04-25T12:57:58;9.87;;;3.07;;
13085;SDS011;6609;49.882;8.664;2023-04-25T13:00:25;8.20;;;2.93;;
13085;SDS011;6609;49.882;8.664;2023-04-25T13:02:52;6.67;;;2.87;;
13085;SDS011;6609;49.882;8.664;2023-04-25T13:05:19;7.20;;;3.10;;
13085;SDS011;6609;49.882;8.664;2023-04-25T13:07:46;6.57;;;3.10;;
13085;SDS011;6609;49.882;8.664;2023-04-25T13:10:13;6.83;;;2.83;;
13085;SDS011;6609;49.882;8.664;2023-04-25T13:12:39;9.13;;;3.10;;
13085;SDS011;6609;49.882;8.664;2023-04-25T13:15:08;8.17;;;3.40;;
13085;SDS011;6609;49.882;8.664;2023-04-25T13:17:36;7.83;;;3.30;;
13085;SDS011;6609;49.882;8.664;2023-04-25T13:20:04;5.13;;;3.40;;
13085;SDS011;6609;49.882;8.664;2023-04-25T13:22:33;6.40;;;2.70;;
13085;SDS011;6609;49.882;8.664;2023-04-25T13:25:01;9.27;;;3.63;;
13085;SDS011;6609;49.882;8.664;2023-04-25T13:27:28;5.20;;;3.20;;
13085;SDS011;6609;49.882;8.664;2023-04-25T13:29:57;5.80;;;2.80;;
13085;SDS011;6609;49.882;8.664;2023-04-25T13:32:25;6.47;;;3.13;;
13085;SDS011;6609;49.882;8.664;2023-04-25T13:34:52;7.30;;;2.50;;
13085;SDS011;6609;49.882;8.664;2023-04-25T13:37:19;7.70;;;3.10;;
13085;SDS011;6609;49.882;8.664;2023-04-25T13:39:49;8.40;;;3.10;;
13085;SDS011;6609;49.882;8.664;2023-04-25T13:42:16;6.47;;;2.40;;
13085;SDS011;6609;49.882;8.664;2023-04-25T13:44:42;5.80;;;2.30;;
13085;SDS011;6609;49.882;8.664;2023-04-25T13:47:09;3.77;;;2.13;;
13085;SDS011;6609;49.882;8.664;2023-04-25T13:49:38;9.13;;;3.77;;
13085;SDS011;6609;49.882;8.664;2023-04-25T13:52:04;3.00;;;1.97;;
13085;SDS011;6609;49.882;8.664;2023-04-25T13:54:32;6.30;;;2.80;;
13085;SDS011;6609;49.882;8.664;2023-04-25T13:56:59;4.10;;;2.90;;
13085;SDS011;6609;49.882;8.664;2023-04-25T13:59:27;4.30;;;2.30;;
13085;SDS011;6609;49.882;8.664;2023-04-25T14:01:53;4.33;;;2.20;;
13085;SDS011;6609;49.882;8.664;2023-04-25T14:04:20;5.77;;;2.73;;
13085;SDS011;6609;49.882;8.664;2023-04-25T14:06:49;5.13;;;2.50;;
13085;SDS011;6609;49.882;8.664;2023-04-25T14:09:16;5.80;;;2.50;;
13085;SDS011;6609;49.882;8.664;2023-04-25T14:11:43;6.43;;;2.40;;
13085;SDS011;6609;49.882;8.664;2023-04-25T14:14:09;3.63;;;2.33;;
13085;SDS011;6609;49.882;8.664;2023-04-25T14:16:37;5.87;;;2.90;;
13085;SDS011;6609;49.882;8.664;2023-04-25T14:19:04;4.43;;;2.57;;
13085;SDS011;6609;49.882;8.664;2023-04-25T14:21:32;4.03;;;2.23;;
13085;SDS011;6609;49.882;8.664;2023-04-25T14:24:00;8.07;;;2.60;;
13085;SDS011;6609;49.882;8.664;2023-04-25T14:26:27;6.00;;;2.60;;
13085;SDS011;6609;49.882;8.664;2023-04-25T14:28:55;5.60;;;2.90;;
13085;SDS011;6609;49.882;8.664;2023-04-25T14:31:22;6.43;;;2.63;;
13085;SDS011;6609;49.882;8.664;2023-04-25T14:33:48;12.03;;;3.23;;
13085;SDS011;6609;49.882;8.664;2023-04-25T14:36:15;4.30;;;1.97;;
13085;SDS011;6609;49.882;8.664;2023-04-25T14:38:42;6.03;;;2.93;;
13085;SDS011;6609;49.882;8.664;2023-04-25T14:41:11;6.77;;;2.67;;
13085;SDS011;6609;49.882;8.664;2023-04-25T14:43:38;5.30;;;3.07;;
13085;SDS011;6609;49.882;8.664;2023-04-25T14:46:06;5.47;;;3.03;;
13085;SDS011;6609;49.882;8.664;2023-04-25T14:48:33;6.97;;;3.13;;
13085;SDS011;6609;49.882;8.664;2023-04-25T14:51:00;6.60;;;2.70;;
13085;SDS011;6609;49.882;8.664;2023-04-25T14:53:27;9.07;;;2.87;;
13085;SDS011;6609;49.882;8.664;2023-04-25T14:55:54;5.53;;;2.30;;
13085;SDS011;6609;49.882;8.664;2023-04-25T14:58:22;6.90;;;2.80;;
13085;SDS011;6609;49.882;8.664;2023-04-25T15:00:49;5.90;;;2.33;;
13085;SDS011;6609;49.882;8.664;2023-04-25T15:03:15;3.47;;;2.07;;
13085;SDS011;6609;49.882;8.664;2023-04-25T15:05:43;5.33;;;2.30;;
13085;SDS011;6609;49.882;8.664;2023-04-25T15:08:09;6.77;;;2.47;;
13085;SDS011;6609;49.882;8.664;2023-04-25T15:10:36;4.33;;;2.17;;
13085;SDS011;6609;49.882;8.664;2023-04-25T15:13:03;5.33;;;2.30;;
13085;SDS011;6609;49.882;8.664;2023-04-25T15:15:31;5.90;;;2.53;;
13085;SDS011;6609;49.882;8.664;2023-04-25T15:17:58;4.23;;;2.40;;
13085;SDS011;6609;49.882;8.664;2023-04-25T15:20:25;6.53;;;2.60;;
13085;SDS011;6609;49.882;8.664;2023-04-25T15:22:53;7.47;;;2.50;;
13085;SDS011;6609;49.882;8.664;2023-04-25T15:25:20;7.07;;;2.67;;
13085;SDS011;6609;49.882;8.664;2023-04-25T15:27:47;9.07;;;3.57;;
13085;SDS011;6609;49.882;8.664;2023-04-25T15:30:17;3.90;;;2.67;;
13085;SDS011;6609;49.882;8.664;2023-04-25T15:32:46;8.97;;;2.70;;
13085;SDS011;6609;49.882;8.664;2023-04-25T15:35:13;6.10;;;2.23;;
13085;SDS011;6609;49.882;8.664;2023-04-25T15:37:40;4.17;;;2.40;;
13085;SDS011;6609;49.882;8.664;2023-04-25T15:40:08;4.93;;;2.73;;
13085;SDS011;6609;49.882;8.664;2023-04-25T15:42:37;5.80;;;2.50;;
13085;SDS011;6609;49.882;8.664;2023-04-25T15:45:05;4.63;;;2.10;;
13085;SDS011;6609;49.882;8.664;2023-04-25T15:47:33;6.17;;;2.63;;
13085;SDS011;6609;49.882;8.664;2023-04-25T15:50:03;6.50;;;2.40;;
13085;SDS011;6609;49.882;8.664;2023-04-25T15:52:33;6.17;;;2.27;;
13085;SDS011;6609;49.882;8.664;2023-04-25T15:55:00;8.60;;;2.00;;
13085;SDS011;6609;49.882;8.664;2023-04-25T15:57:28;7.73;;;2.30;;
13085;SDS011;6609;49.882;8.664;2023-04-25T15:59:55;4.37;;;1.93;;